KMAE

Madera Municipal Airport

Madera, California, USA
METAR KMAE 160953Z AUTO 31007KT 4SM HZ CLR 08/05 A2992 RMK AO2 SLP131 T00780050
Observed Flight Rules
Dec-16 @ 09:53 UTC (60 minutes ago) Marginal Visual Flight Rules
Wind Visibility Clouds Conditions
310° at 7 knots 4 miles
  • Clear skies
  • Haze
Temperatures Readings
Current 8°C / 46°F
Dewpoint 5°C / 41°F
Humidity 82%
Altimeter 29.92" Hg
Pressure 1013.1 hPa
Elevation 77
METAR KMAE 160953Z AUTO 31007KT 4SM HZ CLR 08/05 A2992 RMK AO2 SLP131 T00780050
Observed Flight Rules
Dec-16 @ 09:53 UTC
(60 minutes ago)
MVFR
Wind Visibility
310° at 7 knots 4 miles
Clouds
  • Clear skies
Conditions
  • Haze
Temperature Dewpoint
8°C / 46°F 5°C / 41°F
Humidity Altimeter Pressure
82% 29.92" Hg 1013.1 hPa